createdAt,value
2017-09-16T13:53:42.804Z,51.69
2017-09-16T13:56:11.264Z,51.68
2017-09-16T13:58:39.804Z,51.71
2017-09-16T14:01:08.546Z,51.72
2017-09-16T14:03:36.999Z,51.74
2017-09-16T14:06:06.295Z,51.71
2017-09-16T14:08:37.580Z,51.74
2017-09-16T14:11:06.053Z,51.72
2017-09-16T14:13:34.507Z,51.76
2017-09-16T14:16:04.040Z,51.79
2017-09-16T14:18:32.500Z,51.76
2017-09-16T14:21:01.718Z,51.79
2017-09-16T14:23:30.483Z,51.79
2017-09-16T14:25:59.709Z,51.77
2017-09-16T14:28:28.159Z,51.80
2017-09-16T14:30:57.705Z,51.84
2017-09-16T14:33:26.176Z,51.77
2017-09-16T14:35:54.627Z,51.77
2017-09-16T14:38:24.139Z,51.70
2017-09-16T14:40:52.603Z,51.73
2017-09-16T14:43:21.836Z,51.74
2017-09-16T14:49:58.323Z,51.70
2017-09-16T14:54:02.584Z,51.70
2017-09-16T14:58:06.371Z,51.73
2017-09-16T15:02:10.613Z,51.62
2017-09-16T15:06:14.512Z,51.54
2017-09-16T15:10:18.755Z,51.61
2017-09-16T15:14:22.549Z,51.63
2017-09-16T15:18:26.773Z,51.66
2017-09-16T15:22:31.308Z,51.84
2017-09-16T15:26:35.536Z,51.76
2017-09-16T15:30:40.069Z,51.86
2017-09-16T15:34:44.325Z,51.84
2017-09-16T15:38:48.075Z,51.84
2017-09-16T15:42:51.530Z,51.80
2017-09-16T15:46:55.303Z,51.65
2017-09-16T15:50:59.390Z,51.87
2017-09-16T15:55:03.160Z,51.79
2017-09-16T15:59:07.389Z,51.70
2017-09-16T16:03:12.024Z,51.75
2017-09-16T16:07:16.238Z,51.67
2017-09-16T16:11:20.744Z,51.84
2017-09-16T16:15:24.186Z,51.78
2017-09-16T16:19:28.706Z,51.80
2017-09-16T16:23:32.920Z,51.82
2017-09-16T16:27:36.671Z,51.87
2017-09-16T16:31:40.136Z,51.95
2017-09-16T16:35:43.980Z,51.96
2017-09-16T16:39:48.203Z,52.03
2017-09-16T16:43:52.736Z,52.05
2017-09-16T16:47:56.950Z,52.05
2017-09-16T16:52:01.492Z,52.11
2017-09-16T16:56:05.706Z,52.16
2017-09-16T17:00:10.243Z,52.19
2017-09-16T17:04:14.468Z,52.22
2017-09-16T17:08:19.007Z,52.21
2017-09-16T17:12:23.240Z,52.25
2017-09-16T17:16:27.050Z,52.32
2017-09-16T17:20:31.295Z,52.31
2017-09-16T17:24:35.090Z,52.34
2017-09-16T17:28:39.310Z,52.35
2017-09-16T17:32:43.838Z,52.35
2017-09-16T17:36:48.058Z,52.39
2017-09-16T17:40:52.596Z,52.43
2017-09-16T17:44:56.820Z,52.46
2017-09-16T17:49:01.555Z,52.47
2017-09-16T17:53:05.774Z,52.44
2017-09-16T17:57:09.642Z,52.45
2017-09-16T18:01:13.103Z,52.53
2017-09-16T18:05:17.636Z,52.50
2017-09-16T18:09:21.842Z,52.52
2017-09-16T18:13:25.591Z,52.56
2017-09-16T18:17:29.161Z,52.58
2017-09-16T18:21:33.011Z,52.61
2017-09-16T18:25:37.227Z,52.59
2017-09-16T18:29:41.759Z,52.57
2017-09-16T18:33:45.978Z,52.60
2017-09-16T18:37:50.532Z,52.60
2017-09-16T18:41:54.009Z,52.60
2017-09-16T18:45:57.848Z,52.60
2017-09-16T18:50:02.076Z,52.62
2017-09-16T18:54:05.870Z,52.65
2017-09-16T18:58:09.334Z,52.62
2017-09-16T19:02:13.102Z,52.63
2017-09-16T19:06:17.320Z,52.63
2017-09-16T19:10:21.872Z,52.65
2017-09-16T19:14:25.339Z,52.67
2017-09-16T19:18:29.211Z,52.67
2017-09-16T19:22:32.709Z,52.68
2017-09-16T19:26:36.539Z,52.67
2017-09-16T19:30:40.004Z,52.70
2017-09-16T19:34:43.825Z,52.70
2017-09-16T19:38:48.060Z,52.71
2017-09-16T19:42:52.737Z,52.68
2017-09-16T19:46:56.195Z,52.66
2017-09-16T19:51:00.753Z,52.65
2017-09-16T19:55:04.220Z,52.63
2017-09-16T19:59:07.978Z,52.63
2017-09-16T20:03:11.430Z,52.63
2017-09-16T20:07:15.276Z,52.64
2017-09-16T20:11:19.492Z,52.63
2017-09-16T20:15:24.044Z,52.63
2017-09-16T20:19:27.503Z,52.61
2017-09-16T20:23:31.262Z,52.60
2017-09-16T20:27:35.607Z,52.60
2017-09-16T20:31:39.406Z,52.65
2017-09-16T20:35:42.838Z,52.62
2017-09-16T20:39:46.584Z,52.61
2017-09-16T20:43:50.040Z,52.63
2017-09-16T20:47:53.839Z,52.64
2017-09-16T20:51:58.058Z,52.62
2017-09-16T20:56:02.599Z,52.61
2017-09-16T21:00:06.818Z,52.61
2017-09-16T21:04:11.350Z,52.54
2017-09-16T21:08:15.574Z,52.46
2017-09-16T21:12:20.106Z,52.61
2017-09-16T21:16:24.318Z,52.67
2017-09-16T21:20:28.136Z,52.66
2017-09-16T21:24:32.407Z,52.64
2017-09-16T21:28:36.159Z,52.64
2017-09-16T21:32:39.606Z,52.60
2017-09-16T21:36:44.118Z,52.63
2017-09-16T21:40:47.572Z,52.63
2017-09-16T21:44:51.454Z,52.62
2017-09-16T21:48:55.675Z,52.58
2017-09-16T21:53:00.184Z,52.61
2017-09-16T21:57:03.643Z,52.59
2017-09-16T22:01:07.427Z,52.55
2017-09-16T22:05:11.868Z,52.53
2017-09-16T22:09:16.391Z,52.53
2017-09-16T22:13:20.614Z,52.54
2017-09-16T22:17:25.360Z,52.54
2017-09-16T22:21:29.580Z,52.54
2017-09-16T22:25:34.211Z,52.55
2017-09-16T22:29:38.427Z,52.49
2017-09-16T22:33:42.250Z,52.48
2017-09-16T22:37:46.479Z,52.51
2017-09-16T22:41:51.020Z,52.49
2017-09-16T22:45:55.236Z,52.49
2017-09-16T22:49:59.801Z,52.47
2017-09-16T22:54:03.264Z,52.49
2017-09-16T22:58:07.094Z,52.46
2017-09-16T23:02:11.324Z,52.48
2017-09-16T23:06:15.857Z,52.49
2017-09-16T23:10:19.309Z,52.46
2017-09-16T23:14:23.170Z,52.47
2017-09-16T23:18:27.405Z,52.45
2017-09-16T23:22:31.218Z,52.47
2017-09-16T23:26:35.503Z,52.51
2017-09-16T23:30:39.359Z,52.45
2017-09-16T23:34:43.660Z,52.45
2017-09-16T23:38:47.499Z,52.41
2017-09-16T23:42:51.803Z,52.40
2017-09-16T23:46:55.638Z,52.40
2017-09-16T23:50:59.874Z,52.43
2017-09-16T23:55:04.674Z,52.43
2017-09-16T23:59:08.944Z,52.40
